メインページ
METAR-TAF:

METAR-TAF

空港 :

ジョモ・ケニヤッタ国際空港

ナイロビ, ケニヤ

緯度: 01-19S, 経度: 036-55E, 海抜: 1624m

現時点の気象観測

当レポートは51分前の11:30(UTC)に作成
の風 17kt
気温 26°C
湿度 30%
気圧 1020 hPa
視程10km以上
高度2700ftの千切れ雲あり

METAR: HKJK 211130Z 09017KT 9999 BKN027 26/07 Q1020

時間: 15:21 (12:21 UTC)

予報

当レポートは7時間21分前の05:00(UTC)に作成
予報は21日の 06時(UTC)から 22日の 12時(UTC)まで有効
の風 10kt
視程10km以上
高度2300ftの雲は散在している
21日の 08時(UTC)から 21日の 11時(UTC)まで徐々に
高度2700ftの千切れ雲あり
21日の 12時(UTC)から 21日の 18時(UTC)まで一時的に
高度2500ftの雲はほとんどない, 積乱雲.
高度2600ftの千切れ雲あり
弱いにわか雨
21日の 20時(UTC)から 21日の 23時(UTC)まで徐々に
北東の風 5kt
高度2000ftの千切れ雲あり
22日の 00時(UTC)から 22日の 06時(UTC)まで一時的に
高度800ftの雲は散在している
高度1600ftの千切れ雲あり

TAF: HKJK 210500Z 2106/2212 08010KT 9999 SCT023 BECMG 2108/2111 BKN027 TEMPO 2112/2118 -SHRA FEW025CB BKN026 BECMG 2120/2123 04005KT BKN020 TEMPO 2200/2206 SCT008 BKN016

4,000以上の空港の気象観測と天気予報(METAR報とTAF報)

利用可能な観測所は地図上に黄色い丸と赤い丸で示す。

丸の上にカーソルを重ねると観測所名を参照できる。

次にクリックすると気象観測と天気予報を参照できる。

マップの切り替え:黒色「×」印の緑ボタンをクリックして拡大、「-」印の緑ボタンをクリックして縮小、緑色の三角印をクリックして隣りの地図に切り替え


METAR-TAF: